sensor_id;sensor_type;location;lat;lon;timestamp;P1;durP1;ratioP1;P2;durP2;ratioP2
48361;SDS011;34510;51.888;5.670;2023-04-23T00:02:01;810.63;;;544.67;;
48361;SDS011;34510;51.888;5.670;2023-04-23T00:07:04;810.13;;;564.83;;
48361;SDS011;34510;51.888;5.670;2023-04-23T00:12:29;791.13;;;486.25;;
48361;SDS011;34510;51.888;5.670;2023-04-23T00:17:34;799.75;;;495.08;;
48361;SDS011;34510;51.888;5.670;2023-04-23T00:22:36;798.03;;;471.35;;
48361;SDS011;34510;51.888;5.670;2023-04-23T00:27:38;801.30;;;476.60;;
48361;SDS011;34510;51.888;5.670;2023-04-23T00:32:40;796.00;;;468.52;;
48361;SDS011;34510;51.888;5.670;2023-04-23T00:37:43;795.53;;;477.98;;
48361;SDS011;34510;51.888;5.670;2023-04-23T00:42:45;786.45;;;466.35;;
48361;SDS011;34510;51.888;5.670;2023-04-23T00:47:52;794.67;;;473.10;;
48361;SDS011;34510;51.888;5.670;2023-04-23T00:52:55;798.85;;;469.15;;
48361;SDS011;34510;51.888;5.670;2023-04-23T00:58:04;795.60;;;471.33;;
48361;SDS011;34510;51.888;5.670;2023-04-23T01:03:07;793.80;;;467.60;;
48361;SDS011;34510;51.888;5.670;2023-04-23T01:08:10;800.35;;;482.20;;
48361;SDS011;34510;51.888;5.670;2023-04-23T01:13:16;794.50;;;466.98;;
48361;SDS011;34510;51.888;5.670;2023-04-23T01:18:19;799.15;;;480.30;;
48361;SDS011;34510;51.888;5.670;2023-04-23T01:23:22;793.67;;;465.50;;
48361;SDS011;34510;51.888;5.670;2023-04-23T01:28:24;797.25;;;481.80;;
48361;SDS011;34510;51.888;5.670;2023-04-23T01:33:26;796.35;;;481.80;;
48361;SDS011;34510;51.888;5.670;2023-04-23T01:38:31;786.97;;;460.20;;
48361;SDS011;34510;51.888;5.670;2023-04-23T01:43:36;793.28;;;464.98;;
48361;SDS011;34510;51.888;5.670;2023-04-23T01:48:41;799.65;;;480.55;;
48361;SDS011;34510;51.888;5.670;2023-04-23T01:53:47;778.30;;;449.98;;
48361;SDS011;34510;51.888;5.670;2023-04-23T01:58:49;786.30;;;459.50;;
48361;SDS011;34510;51.888;5.670;2023-04-23T02:03:59;785.20;;;457.20;;
48361;SDS011;34510;51.888;5.670;2023-04-23T02:09:02;786.13;;;459.58;;
48361;SDS011;34510;51.888;5.670;2023-04-23T02:14:05;783.92;;;464.58;;
48361;SDS011;34510;51.888;5.670;2023-04-23T02:19:08;795.80;;;467.13;;
48361;SDS011;34510;51.888;5.670;2023-04-23T02:24:10;790.40;;;468.73;;
48361;SDS011;34510;51.888;5.670;2023-04-23T02:29:12;785.70;;;469.77;;
48361;SDS011;34510;51.888;5.670;2023-04-23T02:34:16;781.45;;;466.35;;
48361;SDS011;34510;51.888;5.670;2023-04-23T02:39:19;780.05;;;467.98;;
48361;SDS011;34510;51.888;5.670;2023-04-23T02:44:31;780.70;;;464.83;;
48361;SDS011;34510;51.888;5.670;2023-04-23T02:49:36;784.25;;;475.60;;
48361;SDS011;34510;51.888;5.670;2023-04-23T02:54:38;778.35;;;468.83;;
48361;SDS011;34510;51.888;5.670;2023-04-23T02:59:41;774.70;;;462.70;;
48361;SDS011;34510;51.888;5.670;2023-04-23T03:04:43;772.40;;;465.10;;
48361;SDS011;34510;51.888;5.670;2023-04-23T03:09:48;775.05;;;478.98;;
48361;SDS011;34510;51.888;5.670;2023-04-23T03:14:53;767.80;;;458.27;;
48361;SDS011;34510;51.888;5.670;2023-04-23T03:19:58;776.42;;;467.42;;
48361;SDS011;34510;51.888;5.670;2023-04-23T03:25:00;782.33;;;486.30;;
48361;SDS011;34510;51.888;5.670;2023-04-23T03:30:04;765.72;;;465.77;;
48361;SDS011;34510;51.888;5.670;2023-04-23T03:35:08;770.83;;;472.60;;
48361;SDS011;34510;51.888;5.670;2023-04-23T03:40:13;767.97;;;466.13;;
48361;SDS011;34510;51.888;5.670;2023-04-23T03:45:18;760.67;;;467.17;;
48361;SDS011;34510;51.888;5.670;2023-04-23T03:50:25;763.20;;;469.55;;
48361;SDS011;34510;51.888;5.670;2023-04-23T03:55:41;763.58;;;464.05;;
48361;SDS011;34510;51.888;5.670;2023-04-23T04:00:43;759.45;;;457.67;;
48361;SDS011;34510;51.888;5.670;2023-04-23T04:05:47;758.08;;;459.73;;
48361;SDS011;34510;51.888;5.670;2023-04-23T04:10:51;760.97;;;456.58;;
48361;SDS011;34510;51.888;5.670;2023-04-23T04:15:58;756.97;;;455.50;;
48361;SDS011;34510;51.888;5.670;2023-04-23T04:21:01;756.58;;;468.48;;
48361;SDS011;34510;51.888;5.670;2023-04-23T04:26:03;750.00;;;459.23;;
48361;SDS011;34510;51.888;5.670;2023-04-23T04:31:06;749.00;;;458.97;;
48361;SDS011;34510;51.888;5.670;2023-04-23T04:36:09;748.57;;;463.37;;
48361;SDS011;34510;51.888;5.670;2023-04-23T04:41:11;750.22;;;451.42;;
48361;SDS011;34510;51.888;5.670;2023-04-23T04:46:16;746.22;;;441.42;;
48361;SDS011;34510;51.888;5.670;2023-04-23T04:51:30;759.72;;;464.52;;
48361;SDS011;34510;51.888;5.670;2023-04-23T04:56:33;757.88;;;457.00;;
48361;SDS011;34510;51.888;5.670;2023-04-23T05:01:35;760.90;;;482.55;;
48361;SDS011;34510;51.888;5.670;2023-04-23T05:06:38;773.92;;;501.50;;
48361;SDS011;34510;51.888;5.670;2023-04-23T05:11:41;767.72;;;472.02;;
48361;SDS011;34510;51.888;5.670;2023-04-23T05:16:44;760.88;;;478.10;;
48361;SDS011;34510;51.888;5.670;2023-04-23T05:21:48;761.75;;;478.00;;
48361;SDS011;34510;51.888;5.670;2023-04-23T05:26:51;765.28;;;479.70;;
48361;SDS011;34510;51.888;5.670;2023-04-23T05:31:54;761.10;;;480.05;;
48361;SDS011;34510;51.888;5.670;2023-04-23T05:37:05;766.63;;;491.05;;
48361;SDS011;34510;51.888;5.670;2023-04-23T05:42:07;768.08;;;487.02;;
48361;SDS011;34510;51.888;5.670;2023-04-23T05:47:09;770.67;;;492.67;;
48361;SDS011;34510;51.888;5.670;2023-04-23T05:52:13;757.25;;;474.35;;
48361;SDS011;34510;51.888;5.670;2023-04-23T05:57:15;756.75;;;469.92;;
48361;SDS011;34510;51.888;5.670;2023-04-23T06:02:17;757.35;;;481.55;;
48361;SDS011;34510;51.888;5.670;2023-04-23T06:07:22;757.05;;;493.60;;
48361;SDS011;34510;51.888;5.670;2023-04-23T06:12:24;770.53;;;526.83;;
48361;SDS011;34510;51.888;5.670;2023-04-23T06:17:30;761.42;;;502.90;;
48361;SDS011;34510;51.888;5.670;2023-04-23T06:22:32;768.83;;;524.30;;
48361;SDS011;34510;51.888;5.670;2023-04-23T06:27:34;782.20;;;561.58;;
48361;SDS011;34510;51.888;5.670;2023-04-23T06:32:43;785.50;;;564.33;;
48361;SDS011;34510;51.888;5.670;2023-04-23T06:37:59;786.90;;;566.03;;
48361;SDS011;34510;51.888;5.670;2023-04-23T06:43:01;793.05;;;580.50;;
48361;SDS011;34510;51.888;5.670;2023-04-23T06:48:31;797.55;;;595.10;;
48361;SDS011;34510;51.888;5.670;2023-04-23T06:53:43;796.33;;;608.20;;
48361;SDS011;34510;51.888;5.670;2023-04-23T06:58:45;804.78;;;615.75;;
48361;SDS011;34510;51.888;5.670;2023-04-23T07:03:52;803.08;;;631.65;;
48361;SDS011;34510;51.888;5.670;2023-04-23T07:08:55;803.42;;;644.53;;
48361;SDS011;34510;51.888;5.670;2023-04-23T07:14:00;806.88;;;657.13;;
48361;SDS011;34510;51.888;5.670;2023-04-23T07:19:03;809.00;;;670.95;;
48361;SDS011;34510;51.888;5.670;2023-04-23T07:24:15;814.53;;;683.30;;
48361;SDS011;34510;51.888;5.670;2023-04-23T07:29:17;818.13;;;694.50;;
48361;SDS011;34510;51.888;5.670;2023-04-23T07:34:20;822.15;;;715.90;;
48361;SDS011;34510;51.888;5.670;2023-04-23T07:39:22;820.83;;;704.55;;
48361;SDS011;34510;51.888;5.670;2023-04-23T07:44:24;826.40;;;728.70;;
48361;SDS011;34510;51.888;5.670;2023-04-23T07:49:35;830.58;;;739.25;;
48361;SDS011;34510;51.888;5.670;2023-04-23T07:54:38;835.25;;;742.95;;
48361;SDS011;34510;51.888;5.670;2023-04-23T07:59:47;836.50;;;744.45;;
48361;SDS011;34510;51.888;5.670;2023-04-23T08:04:51;845.00;;;752.05;;
48361;SDS011;34510;51.888;5.670;2023-04-23T08:09:54;854.00;;;761.30;;
48361;SDS011;34510;51.888;5.670;2023-04-23T08:14:57;864.58;;;771.28;;
48361;SDS011;34510;51.888;5.670;2023-04-23T08:20:07;882.78;;;788.60;;
48361;SDS011;34510;51.888;5.670;2023-04-23T08:25:13;874.50;;;781.00;;
48361;SDS011;34510;51.888;5.670;2023-04-23T08:30:24;895.28;;;800.70;;
48361;SDS011;34510;51.888;5.670;2023-04-23T08:35:26;889.88;;;795.75;;
48361;SDS011;34510;51.888;5.670;2023-04-23T08:40:31;900.10;;;805.53;;
48361;SDS011;34510;51.888;5.670;2023-04-23T08:45:45;912.88;;;817.80;;
48361;SDS011;34510;51.888;5.670;2023-04-23T08:50:48;934.28;;;837.97;;
48361;SDS011;34510;51.888;5.670;2023-04-23T08:55:50;942.25;;;845.97;;
48361;SDS011;34510;51.888;5.670;2023-04-23T09:00:53;941.35;;;845.00;;
48361;SDS011;34510;51.888;5.670;2023-04-23T09:05:57;938.95;;;843.25;;
48361;SDS011;34510;51.888;5.670;2023-04-23T09:11:00;945.10;;;849.33;;
48361;SDS011;34510;51.888;5.670;2023-04-23T09:16:03;964.38;;;867.42;;
48361;SDS011;34510;51.888;5.670;2023-04-23T09:21:06;954.83;;;858.22;;
48361;SDS011;34510;51.888;5.670;2023-04-23T09:26:09;968.53;;;871.22;;
48361;SDS011;34510;51.888;5.670;2023-04-23T09:31:25;985.30;;;887.35;;
48361;SDS011;34510;51.888;5.670;2023-04-23T09:36:26;991.13;;;892.45;;
48361;SDS011;34510;51.888;5.670;2023-04-23T09:41:29;994.95;;;896.88;;
48361;SDS011;34510;51.888;5.670;2023-04-23T09:46:38;991.10;;;892.42;;
48361;SDS011;34510;51.888;5.670;2023-04-23T09:51:43;989.10;;;890.92;;
48361;SDS011;34510;51.888;5.670;2023-04-23T09:56:49;991.00;;;893.30;;
48361;SDS011;34510;51.888;5.670;2023-04-23T10:01:54;1001.65;;;903.50;;
48361;SDS011;34510;51.888;5.670;2023-04-23T10:07:01;992.88;;;895.50;;
48361;SDS011;34510;51.888;5.670;2023-04-23T10:12:21;1001.20;;;903.05;;
48361;SDS011;34510;51.888;5.670;2023-04-23T10:17:55;1012.30;;;913.50;;
48361;SDS011;34510;51.888;5.670;2023-04-23T10:22:59;1006.67;;;908.80;;
48361;SDS011;34510;51.888;5.670;2023-04-23T10:28:02;1006.75;;;908.45;;
48361;SDS011;34510;51.888;5.670;2023-04-23T10:33:08;1019.53;;;920.30;;
48361;SDS011;34510;51.888;5.670;2023-04-23T10:38:29;1004.88;;;906.90;;
48361;SDS011;34510;51.888;5.670;2023-04-23T10:43:33;999.97;;;902.28;;
48361;SDS011;34510;51.888;5.670;2023-04-23T10:48:50;1010.63;;;912.08;;
48361;SDS011;34510;51.888;5.670;2023-04-23T10:54:08;1041.28;;;941.40;;
48361;SDS011;34510;51.888;5.670;2023-04-23T10:59:18;1037.60;;;938.47;;
48361;SDS011;34510;51.888;5.670;2023-04-23T11:04:28;1061.35;;;960.13;;
48361;SDS011;34510;51.888;5.670;2023-04-23T11:09:44;1055.13;;;955.03;;
48361;SDS011;34510;51.888;5.670;2023-04-23T11:14:50;1045.13;;;945.45;;
48361;SDS011;34510;51.888;5.670;2023-04-23T11:20:07;1028.13;;;928.75;;
48361;SDS011;34510;51.888;5.670;2023-04-23T11:25:31;1028.50;;;929.85;;
48361;SDS011;34510;51.888;5.670;2023-04-23T11:30:33;1014.95;;;916.92;;
48361;SDS011;34510;51.888;5.670;2023-04-23T11:35:37;1020.78;;;922.20;;
48361;SDS011;34510;51.888;5.670;2023-04-23T11:40:44;1024.22;;;924.83;;
48361;SDS011;34510;51.888;5.670;2023-04-23T11:45:47;1021.50;;;923.13;;
48361;SDS011;34510;51.888;5.670;2023-04-23T11:50:50;1026.18;;;927.45;;
48361;SDS011;34510;51.888;5.670;2023-04-23T11:55:54;1045.70;;;945.78;;
48361;SDS011;34510;51.888;5.670;2023-04-23T12:00:57;1031.30;;;932.20;;
48361;SDS011;34510;51.888;5.670;2023-04-23T12:06:01;1026.22;;;926.88;;
48361;SDS011;34510;51.888;5.670;2023-04-23T12:11:03;1046.45;;;946.85;;
48361;SDS011;34510;51.888;5.670;2023-04-23T12:16:07;1051.68;;;950.80;;
48361;SDS011;34510;51.888;5.670;2023-04-23T12:21:12;1044.95;;;945.65;;
48361;SDS011;34510;51.888;5.670;2023-04-23T12:26:15;1049.93;;;950.22;;
48361;SDS011;34510;51.888;5.670;2023-04-23T12:36:25;1054.10;;;954.08;;
48361;SDS011;34510;51.888;5.670;2023-04-23T12:41:36;1038.75;;;939.42;;
48361;SDS011;34510;51.888;5.670;2023-04-23T12:46:41;1050.65;;;949.85;;
48361;SDS011;34510;51.888;5.670;2023-04-23T12:51:43;1044.88;;;944.55;;
48361;SDS011;34510;51.888;5.670;2023-04-23T12:56:48;1042.55;;;942.90;;
48361;SDS011;34510;51.888;5.670;2023-04-23T13:01:50;1038.78;;;939.45;;
48361;SDS011;34510;51.888;5.670;2023-04-23T13:06:53;1034.78;;;935.78;;
48361;SDS011;34510;51.888;5.670;2023-04-23T13:11:56;1031.03;;;931.85;;
48361;SDS011;34510;51.888;5.670;2023-04-23T13:17:14;1037.40;;;937.70;;
48361;SDS011;34510;51.888;5.670;2023-04-23T13:22:16;1037.03;;;936.97;;
48361;SDS011;34510;51.888;5.670;2023-04-23T13:27:18;1028.78;;;930.28;;
48361;SDS011;34510;51.888;5.670;2023-04-23T13:32:20;1038.07;;;938.47;;
48361;SDS011;34510;51.888;5.670;2023-04-23T13:37:27;1023.28;;;924.75;;
48361;SDS011;34510;51.888;5.670;2023-04-23T13:42:41;1024.95;;;925.67;;
48361;SDS011;34510;51.888;5.670;2023-04-23T13:47:43;1027.15;;;928.50;;
48361;SDS011;34510;51.888;5.670;2023-04-23T13:52:49;1023.60;;;925.40;;
48361;SDS011;34510;51.888;5.670;2023-04-23T13:57:52;1030.38;;;931.92;;
48361;SDS011;34510;51.888;5.670;2023-04-23T14:02:58;1047.40;;;947.53;;
48361;SDS011;34510;51.888;5.670;2023-04-23T14:08:14;1032.05;;;933.05;;
48361;SDS011;34510;51.888;5.670;2023-04-23T14:13:16;1028.40;;;929.40;;
48361;SDS011;34510;51.888;5.670;2023-04-23T14:18:19;1014.67;;;916.53;;
48361;SDS011;34510;51.888;5.670;2023-04-23T14:33:51;1007.23;;;908.93;;
48361;SDS011;34510;51.888;5.670;2023-04-23T14:39:01;997.42;;;899.42;;
48361;SDS011;34510;51.888;5.670;2023-04-23T14:44:07;1003.25;;;905.20;;
48361;SDS011;34510;51.888;5.670;2023-04-23T14:49:09;982.60;;;885.50;;
48361;SDS011;34510;51.888;5.670;2023-04-23T14:54:11;975.63;;;878.28;;
48361;SDS011;34510;51.888;5.670;2023-04-23T14:59:14;957.72;;;861.17;;
48361;SDS011;34510;51.888;5.670;2023-04-23T15:04:17;930.42;;;834.92;;
48361;SDS011;34510;51.888;5.670;2023-04-23T15:09:20;917.53;;;822.70;;
48361;SDS011;34510;51.888;5.670;2023-04-23T15:14:31;908.17;;;813.90;;
48361;SDS011;34510;51.888;5.670;2023-04-23T15:19:37;899.88;;;805.60;;
48361;SDS011;34510;51.888;5.670;2023-04-23T15:24:39;898.30;;;804.05;;
48361;SDS011;34510;51.888;5.670;2023-04-23T15:29:43;868.15;;;774.92;;
48361;SDS011;34510;51.888;5.670;2023-04-23T15:34:46;853.15;;;760.28;;
48361;SDS011;34510;51.888;5.670;2023-04-23T15:39:47;836.65;;;744.67;;
48361;SDS011;34510;51.888;5.670;2023-04-23T15:44:50;828.60;;;737.08;;
48361;SDS011;34510;51.888;5.670;2023-04-23T15:49:55;822.72;;;730.33;;
48361;SDS011;34510;51.888;5.670;2023-04-23T15:54:56;821.40;;;726.75;;
48361;SDS011;34510;51.888;5.670;2023-04-23T15:59:58;830.28;;;738.65;;
48361;SDS011;34510;51.888;5.670;2023-04-23T16:05:00;822.70;;;731.03;;
48361;SDS011;34510;51.888;5.670;2023-04-23T16:10:04;824.13;;;732.70;;
48361;SDS011;34510;51.888;5.670;2023-04-23T16:15:07;819.70;;;725.60;;
48361;SDS011;34510;51.888;5.670;2023-04-23T16:20:19;842.10;;;750.13;;
48361;SDS011;34510;51.888;5.670;2023-04-23T16:25:21;820.50;;;727.25;;
48361;SDS011;34510;51.888;5.670;2023-04-23T16:30:25;833.10;;;741.63;;
48361;SDS011;34510;51.888;5.670;2023-04-23T16:35:28;821.47;;;730.78;;
48361;SDS011;34510;51.888;5.670;2023-04-23T16:40:30;823.92;;;732.78;;
48361;SDS011;34510;51.888;5.670;2023-04-23T16:45:33;822.35;;;729.22;;
48361;SDS011;34510;51.888;5.670;2023-04-23T16:50:35;823.05;;;730.47;;
48361;SDS011;34510;51.888;5.670;2023-04-23T16:55:44;815.47;;;722.38;;
48361;SDS011;34510;51.888;5.670;2023-04-23T17:00:47;817.92;;;718.50;;
48361;SDS011;34510;51.888;5.670;2023-04-23T17:06:06;810.50;;;719.58;;
48361;SDS011;34510;51.888;5.670;2023-04-23T17:11:29;810.40;;;717.92;;
48361;SDS011;34510;51.888;5.670;2023-04-23T17:16:31;809.58;;;714.92;;
48361;SDS011;34510;51.888;5.670;2023-04-23T17:21:34;806.42;;;709.13;;
48361;SDS011;34510;51.888;5.670;2023-04-23T17:26:36;815.97;;;714.95;;
48361;SDS011;34510;51.888;5.670;2023-04-23T17:31:43;813.85;;;708.00;;
48361;SDS011;34510;51.888;5.670;2023-04-23T17:36:53;808.35;;;701.38;;
48361;SDS011;34510;51.888;5.670;2023-04-23T17:42:22;814.67;;;716.17;;
48361;SDS011;34510;51.888;5.670;2023-04-23T17:47:24;810.30;;;703.63;;
48361;SDS011;34510;51.888;5.670;2023-04-23T17:52:27;815.15;;;721.55;;
48361;SDS011;34510;51.888;5.670;2023-04-23T17:57:29;803.97;;;695.92;;
48361;SDS011;34510;51.888;5.670;2023-04-23T18:02:31;806.17;;;698.63;;
48361;SDS011;34510;51.888;5.670;2023-04-23T18:07:43;808.55;;;704.80;;
48361;SDS011;34510;51.888;5.670;2023-04-23T18:12:46;814.05;;;716.47;;
48361;SDS011;34510;51.888;5.670;2023-04-23T18:17:49;814.50;;;707.35;;
48361;SDS011;34510;51.888;5.670;2023-04-23T18:22:53;806.33;;;679.50;;
48361;SDS011;34510;51.888;5.670;2023-04-23T18:27:58;807.53;;;686.60;;
48361;SDS011;34510;51.888;5.670;2023-04-23T18:33:02;808.70;;;699.83;;
48361;SDS011;34510;51.888;5.670;2023-04-23T18:38:22;805.63;;;692.50;;
48361;SDS011;34510;51.888;5.670;2023-04-23T18:43:28;803.05;;;687.80;;
48361;SDS011;34510;51.888;5.670;2023-04-23T18:53:35;804.58;;;685.78;;
48361;SDS011;34510;51.888;5.670;2023-04-23T18:58:50;808.65;;;698.67;;
48361;SDS011;34510;51.888;5.670;2023-04-23T19:03:53;803.50;;;669.63;;
48361;SDS011;34510;51.888;5.670;2023-04-23T19:08:58;811.83;;;679.95;;
48361;SDS011;34510;51.888;5.670;2023-04-23T19:14:00;814.13;;;682.75;;
48361;SDS011;34510;51.888;5.670;2023-04-23T19:19:02;811.47;;;673.70;;
48361;SDS011;34510;51.888;5.670;2023-04-23T19:24:04;813.55;;;683.55;;
48361;SDS011;34510;51.888;5.670;2023-04-23T19:29:08;798.70;;;677.25;;
48361;SDS011;34510;51.888;5.670;2023-04-23T19:34:10;787.70;;;678.55;;
48361;SDS011;34510;51.888;5.670;2023-04-23T19:39:15;796.53;;;673.83;;
48361;SDS011;34510;51.888;5.670;2023-04-23T19:44:19;821.67;;;701.05;;
48361;SDS011;34510;51.888;5.670;2023-04-23T19:49:23;811.38;;;664.70;;
48361;SDS011;34510;51.888;5.670;2023-04-23T19:54:26;808.13;;;672.35;;
48361;SDS011;34510;51.888;5.670;2023-04-23T19:59:28;807.13;;;669.35;;
48361;SDS011;34510;51.888;5.670;2023-04-23T20:04:30;793.03;;;640.72;;
48361;SDS011;34510;51.888;5.670;2023-04-23T20:09:34;798.22;;;651.97;;
48361;SDS011;34510;51.888;5.670;2023-04-23T20:14:36;800.22;;;658.58;;
48361;SDS011;34510;51.888;5.670;2023-04-23T20:19:39;797.35;;;640.28;;
48361;SDS011;34510;51.888;5.670;2023-04-23T20:24:42;798.28;;;645.75;;
48361;SDS011;34510;51.888;5.670;2023-04-23T20:29:50;792.83;;;646.55;;
48361;SDS011;34510;51.888;5.670;2023-04-23T20:34:52;787.90;;;624.42;;
48361;SDS011;34510;51.888;5.670;2023-04-23T20:39:58;791.80;;;594.88;;
48361;SDS011;34510;51.888;5.670;2023-04-23T20:45:01;788.58;;;612.28;;
48361;SDS011;34510;51.888;5.670;2023-04-23T20:50:03;784.90;;;585.75;;
48361;SDS011;34510;51.888;5.670;2023-04-23T20:55:06;784.22;;;578.45;;
48361;SDS011;34510;51.888;5.670;2023-04-23T21:00:12;796.65;;;599.15;;
48361;SDS011;34510;51.888;5.670;2023-04-23T21:05:28;789.90;;;575.58;;
48361;SDS011;34510;51.888;5.670;2023-04-23T21:10:31;784.00;;;571.25;;
48361;SDS011;34510;51.888;5.670;2023-04-23T21:15:33;793.75;;;593.30;;
48361;SDS011;34510;51.888;5.670;2023-04-23T21:20:36;788.30;;;579.83;;
48361;SDS011;34510;51.888;5.670;2023-04-23T21:25:40;783.67;;;573.70;;
48361;SDS011;34510;51.888;5.670;2023-04-23T21:30:50;783.85;;;578.25;;
48361;SDS011;34510;51.888;5.670;2023-04-23T21:36:04;778.25;;;561.10;;
48361;SDS011;34510;51.888;5.670;2023-04-23T21:41:09;771.00;;;567.57;;
48361;SDS011;34510;51.888;5.670;2023-04-23T21:46:30;787.00;;;584.35;;
48361;SDS011;34510;51.888;5.670;2023-04-23T21:51:32;780.85;;;571.10;;
48361;SDS011;34510;51.888;5.670;2023-04-23T21:56:44;784.50;;;577.35;;
48361;SDS011;34510;51.888;5.670;2023-04-23T22:01:47;777.03;;;558.70;;
48361;SDS011;34510;51.888;5.670;2023-04-23T22:06:49;765.15;;;526.42;;
48361;SDS011;34510;51.888;5.670;2023-04-23T22:11:53;780.07;;;565.60;;
48361;SDS011;34510;51.888;5.670;2023-04-23T22:17:02;756.50;;;517.70;;
48361;SDS011;34510;51.888;5.670;2023-04-23T22:22:04;765.53;;;531.38;;
48361;SDS011;34510;51.888;5.670;2023-04-23T22:27:09;761.47;;;534.07;;
48361;SDS011;34510;51.888;5.670;2023-04-23T22:32:29;792.13;;;559.07;;
48361;SDS011;34510;51.888;5.670;2023-04-23T22:37:32;754.03;;;496.60;;
48361;SDS011;34510;51.888;5.670;2023-04-23T22:42:35;765.70;;;532.60;;
48361;SDS011;34510;51.888;5.670;2023-04-23T22:47:38;767.28;;;533.40;;
48361;SDS011;34510;51.888;5.670;2023-04-23T22:52:40;767.72;;;522.50;;
48361;SDS011;34510;51.888;5.670;2023-04-23T22:57:45;760.13;;;496.55;;
48361;SDS011;34510;51.888;5.670;2023-04-23T23:02:48;763.15;;;494.83;;
48361;SDS011;34510;51.888;5.670;2023-04-23T23:07:53;758.92;;;526.67;;
48361;SDS011;34510;51.888;5.670;2023-04-23T23:12:57;766.40;;;517.90;;
48361;SDS011;34510;51.888;5.670;2023-04-23T23:18:00;763.83;;;518.80;;
48361;SDS011;34510;51.888;5.670;2023-04-23T23:23:02;766.17;;;509.00;;
48361;SDS011;34510;51.888;5.670;2023-04-23T23:28:04;763.97;;;510.98;;
48361;SDS011;34510;51.888;5.670;2023-04-23T23:33:08;762.50;;;508.25;;
48361;SDS011;34510;51.888;5.670;2023-04-23T23:38:11;767.92;;;517.65;;
48361;SDS011;34510;51.888;5.670;2023-04-23T23:43:16;758.97;;;501.80;;
48361;SDS011;34510;51.888;5.670;2023-04-23T23:48:18;757.80;;;504.65;;
48361;SDS011;34510;51.888;5.670;2023-04-23T23:53:20;760.53;;;495.08;;
48361;SDS011;34510;51.888;5.670;2023-04-23T23:58:23;761.85;;;511.45;;
